sensor_id;sensor_type;location;lat;lon;timestamp;P1;durP1;ratioP1;P2;durP2;ratioP2
20142;SDS011;10509;46.476;7.134;2023-05-29T00:00:50;4.70;;;4.30;;
20142;SDS011;10509;46.476;7.134;2023-05-29T00:03:17;4.70;;;4.30;;
20142;SDS011;10509;46.476;7.134;2023-05-29T00:05:43;4.50;;;4.10;;
20142;SDS011;10509;46.476;7.134;2023-05-29T00:08:09;5.30;;;4.80;;
20142;SDS011;10509;46.476;7.134;2023-05-29T00:10:35;4.70;;;4.30;;
20142;SDS011;10509;46.476;7.134;2023-05-29T00:13:02;5.13;;;4.47;;
20142;SDS011;10509;46.476;7.134;2023-05-29T00:15:28;7.53;;;4.30;;
20142;SDS011;10509;46.476;7.134;2023-05-29T00:17:55;5.90;;;4.80;;
20142;SDS011;10509;46.476;7.134;2023-05-29T00:20:21;4.90;;;4.50;;
20142;SDS011;10509;46.476;7.134;2023-05-29T00:22:47;4.40;;;4.10;;
20142;SDS011;10509;46.476;7.134;2023-05-29T00:25:14;5.00;;;4.53;;
20142;SDS011;10509;46.476;7.134;2023-05-29T00:27:40;4.60;;;4.20;;
20142;SDS011;10509;46.476;7.134;2023-05-29T00:30:07;5.23;;;4.83;;
20142;SDS011;10509;46.476;7.134;2023-05-29T00:32:33;4.80;;;4.40;;
20142;SDS011;10509;46.476;7.134;2023-05-29T00:34:59;5.27;;;4.77;;
20142;SDS011;10509;46.476;7.134;2023-05-29T00:37:25;4.73;;;4.33;;
20142;SDS011;10509;46.476;7.134;2023-05-29T00:39:51;4.63;;;4.23;;
20142;SDS011;10509;46.476;7.134;2023-05-29T00:42:17;4.77;;;4.27;;
20142;SDS011;10509;46.476;7.134;2023-05-29T00:44:43;5.57;;;4.53;;
20142;SDS011;10509;46.476;7.134;2023-05-29T00:47:11;5.00;;;4.60;;
20142;SDS011;10509;46.476;7.134;2023-05-29T00:49:37;4.77;;;4.47;;
20142;SDS011;10509;46.476;7.134;2023-05-29T00:52:03;4.97;;;4.57;;
20142;SDS011;10509;46.476;7.134;2023-05-29T00:54:31;5.27;;;4.77;;
20142;SDS011;10509;46.476;7.134;2023-05-29T00:56:58;5.30;;;4.90;;
20142;SDS011;10509;46.476;7.134;2023-05-29T00:59:25;5.90;;;5.40;;
20142;SDS011;10509;46.476;7.134;2023-05-29T01:01:52;5.13;;;4.73;;
20142;SDS011;10509;46.476;7.134;2023-05-29T01:04:19;5.97;;;5.47;;
20142;SDS011;10509;46.476;7.134;2023-05-29T01:06:46;5.10;;;4.70;;
20142;SDS011;10509;46.476;7.134;2023-05-29T01:09:12;5.47;;;5.00;;
20142;SDS011;10509;46.476;7.134;2023-05-29T01:14:24;5.00;;;4.60;;
20142;SDS011;10509;46.476;7.134;2023-05-29T01:16:59;5.10;;;4.70;;
20142;SDS011;10509;46.476;7.134;2023-05-29T01:19:35;4.80;;;4.40;;
20142;SDS011;10509;46.476;7.134;2023-05-29T01:22:12;5.60;;;5.10;;
20142;SDS011;10509;46.476;7.134;2023-05-29T01:27:09;5.33;;;4.60;;
20142;SDS011;10509;46.476;7.134;2023-05-29T01:29:36;4.83;;;4.53;;
20142;SDS011;10509;46.476;7.134;2023-05-29T01:32:03;6.17;;;4.83;;
20142;SDS011;10509;46.476;7.134;2023-05-29T01:34:31;5.00;;;4.60;;
20142;SDS011;10509;46.476;7.134;2023-05-29T01:36:57;5.63;;;5.13;;
20142;SDS011;10509;46.476;7.134;2023-05-29T01:39:23;6.67;;;4.90;;
20142;SDS011;10509;46.476;7.134;2023-05-29T01:41:50;5.60;;;5.10;;
20142;SDS011;10509;46.476;7.134;2023-05-29T01:44:16;5.47;;;5.07;;
20142;SDS011;10509;46.476;7.134;2023-05-29T01:46:43;6.77;;;5.27;;
20142;SDS011;10509;46.476;7.134;2023-05-29T01:49:10;5.50;;;5.10;;
20142;SDS011;10509;46.476;7.134;2023-05-29T01:51:40;5.10;;;4.70;;
20142;SDS011;10509;46.476;7.134;2023-05-29T01:54:06;4.73;;;4.33;;
20142;SDS011;10509;46.476;7.134;2023-05-29T01:56:32;5.53;;;5.13;;
20142;SDS011;10509;46.476;7.134;2023-05-29T01:58:59;5.20;;;4.80;;
20142;SDS011;10509;46.476;7.134;2023-05-29T02:01:26;5.33;;;4.90;;
20142;SDS011;10509;46.476;7.134;2023-05-29T02:03:52;5.10;;;4.70;;
20142;SDS011;10509;46.476;7.134;2023-05-29T02:06:18;5.67;;;5.00;;
20142;SDS011;10509;46.476;7.134;2023-05-29T02:08:44;5.47;;;5.07;;
20142;SDS011;10509;46.476;7.134;2023-05-29T02:11:10;5.30;;;4.90;;
20142;SDS011;10509;46.476;7.134;2023-05-29T02:13:36;5.47;;;4.73;;
20142;SDS011;10509;46.476;7.134;2023-05-29T02:16:04;5.10;;;4.60;;
20142;SDS011;10509;46.476;7.134;2023-05-29T02:18:30;5.10;;;4.70;;
20142;SDS011;10509;46.476;7.134;2023-05-29T02:20:56;5.20;;;4.70;;
20142;SDS011;10509;46.476;7.134;2023-05-29T02:23:22;5.47;;;5.07;;
20142;SDS011;10509;46.476;7.134;2023-05-29T02:25:48;7.03;;;4.50;;
20142;SDS011;10509;46.476;7.134;2023-05-29T02:28:14;5.00;;;4.50;;
20142;SDS011;10509;46.476;7.134;2023-05-29T02:30:40;4.73;;;4.33;;
20142;SDS011;10509;46.476;7.134;2023-05-29T02:33:06;5.10;;;4.60;;
20142;SDS011;10509;46.476;7.134;2023-05-29T02:35:33;5.97;;;5.47;;
20142;SDS011;10509;46.476;7.134;2023-05-29T02:37:59;5.53;;;5.10;;
20142;SDS011;10509;46.476;7.134;2023-05-29T02:40:25;5.17;;;4.80;;
20142;SDS011;10509;46.476;7.134;2023-05-29T02:42:51;5.87;;;5.30;;
20142;SDS011;10509;46.476;7.134;2023-05-29T02:45:18;5.53;;;5.03;;
20142;SDS011;10509;46.476;7.134;2023-05-29T02:47:44;5.27;;;4.77;;
20142;SDS011;10509;46.476;7.134;2023-05-29T02:50:10;5.00;;;4.60;;
20142;SDS011;10509;46.476;7.134;2023-05-29T02:52:39;4.67;;;4.30;;
20142;SDS011;10509;46.476;7.134;2023-05-29T02:55:05;4.73;;;4.37;;
20142;SDS011;10509;46.476;7.134;2023-05-29T02:57:32;4.63;;;4.33;;
20142;SDS011;10509;46.476;7.134;2023-05-29T02:59:58;5.40;;;4.80;;
20142;SDS011;10509;46.476;7.134;2023-05-29T03:02:25;5.20;;;4.80;;
20142;SDS011;10509;46.476;7.134;2023-05-29T03:04:51;5.43;;;5.00;;
20142;SDS011;10509;46.476;7.134;2023-05-29T03:07:18;5.13;;;4.67;;
20142;SDS011;10509;46.476;7.134;2023-05-29T03:09:44;5.17;;;4.77;;
20142;SDS011;10509;46.476;7.134;2023-05-29T03:12:10;4.90;;;4.40;;
20142;SDS011;10509;46.476;7.134;2023-05-29T03:14:36;5.47;;;5.07;;
20142;SDS011;10509;46.476;7.134;2023-05-29T03:17:06;5.10;;;4.70;;
20142;SDS011;10509;46.476;7.134;2023-05-29T03:19:35;5.17;;;4.77;;
20142;SDS011;10509;46.476;7.134;2023-05-29T03:22:02;5.97;;;5.03;;
20142;SDS011;10509;46.476;7.134;2023-05-29T03:24:28;5.80;;;5.00;;
20142;SDS011;10509;46.476;7.134;2023-05-29T03:26:54;5.30;;;4.80;;
20142;SDS011;10509;46.476;7.134;2023-05-29T03:29:21;5.37;;;4.97;;
20142;SDS011;10509;46.476;7.134;2023-05-29T03:31:47;5.33;;;4.93;;
20142;SDS011;10509;46.476;7.134;2023-05-29T03:34:13;4.83;;;4.53;;
20142;SDS011;10509;46.476;7.134;2023-05-29T03:36:39;5.37;;;4.93;;
20142;SDS011;10509;46.476;7.134;2023-05-29T03:39:05;5.73;;;5.23;;
20142;SDS011;10509;46.476;7.134;2023-05-29T03:41:31;5.77;;;5.03;;
20142;SDS011;10509;46.476;7.134;2023-05-29T03:43:57;5.23;;;4.83;;
20142;SDS011;10509;46.476;7.134;2023-05-29T03:46:23;5.03;;;4.63;;
20142;SDS011;10509;46.476;7.134;2023-05-29T03:48:49;5.87;;;5.37;;
20142;SDS011;10509;46.476;7.134;2023-05-29T03:51:15;5.30;;;4.90;;
20142;SDS011;10509;46.476;7.134;2023-05-29T03:53:41;6.13;;;5.50;;
20142;SDS011;10509;46.476;7.134;2023-05-29T03:56:07;5.40;;;5.00;;
20142;SDS011;10509;46.476;7.134;2023-05-29T03:58:33;6.10;;;5.50;;
20142;SDS011;10509;46.476;7.134;2023-05-29T04:01:01;5.33;;;4.93;;
20142;SDS011;10509;46.476;7.134;2023-05-29T04:03:27;5.60;;;5.20;;
20142;SDS011;10509;46.476;7.134;2023-05-29T04:05:54;5.63;;;5.10;;
20142;SDS011;10509;46.476;7.134;2023-05-29T04:08:20;5.40;;;4.90;;
20142;SDS011;10509;46.476;7.134;2023-05-29T04:10:46;5.87;;;5.27;;
20142;SDS011;10509;46.476;7.134;2023-05-29T04:13:12;5.50;;;5.10;;
20142;SDS011;10509;46.476;7.134;2023-05-29T04:15:38;5.23;;;4.83;;
20142;SDS011;10509;46.476;7.134;2023-05-29T04:18:04;5.43;;;5.03;;
20142;SDS011;10509;46.476;7.134;2023-05-29T04:20:30;5.70;;;5.20;;
20142;SDS011;10509;46.476;7.134;2023-05-29T04:22:56;5.20;;;4.80;;
20142;SDS011;10509;46.476;7.134;2023-05-29T04:25:22;5.23;;;4.83;;
20142;SDS011;10509;46.476;7.134;2023-05-29T04:27:48;6.03;;;5.53;;
20142;SDS011;10509;46.476;7.134;2023-05-29T04:30:15;6.10;;;5.50;;
20142;SDS011;10509;46.476;7.134;2023-05-29T04:32:41;5.80;;;5.40;;
20142;SDS011;10509;46.476;7.134;2023-05-29T04:35:08;5.47;;;5.07;;
20142;SDS011;10509;46.476;7.134;2023-05-29T04:37:34;5.50;;;5.10;;
20142;SDS011;10509;46.476;7.134;2023-05-29T04:40:07;5.63;;;5.23;;
20142;SDS011;10509;46.476;7.134;2023-05-29T04:42:37;5.73;;;5.20;;
20142;SDS011;10509;46.476;7.134;2023-05-29T04:45:05;5.50;;;5.03;;
20142;SDS011;10509;46.476;7.134;2023-05-29T04:47:31;5.47;;;5.07;;
20142;SDS011;10509;46.476;7.134;2023-05-29T04:50:00;6.60;;;5.47;;
20142;SDS011;10509;46.476;7.134;2023-05-29T04:52:26;6.70;;;4.93;;
20142;SDS011;10509;46.476;7.134;2023-05-29T04:54:53;5.57;;;5.17;;
20142;SDS011;10509;46.476;7.134;2023-05-29T04:57:20;6.27;;;5.33;;
20142;SDS011;10509;46.476;7.134;2023-05-29T04:59:46;7.23;;;5.40;;
20142;SDS011;10509;46.476;7.134;2023-05-29T05:02:12;6.47;;;5.97;;
20142;SDS011;10509;46.476;7.134;2023-05-29T05:04:38;6.03;;;5.43;;
20142;SDS011;10509;46.476;7.134;2023-05-29T05:07:04;6.13;;;5.30;;
20142;SDS011;10509;46.476;7.134;2023-05-29T05:09:31;6.83;;;4.97;;
20142;SDS011;10509;46.476;7.134;2023-05-29T05:11:57;5.83;;;5.10;;
20142;SDS011;10509;46.476;7.134;2023-05-29T05:14:23;5.67;;;5.17;;
20142;SDS011;10509;46.476;7.134;2023-05-29T05:16:49;5.43;;;4.93;;
20142;SDS011;10509;46.476;7.134;2023-05-29T05:19:16;5.37;;;4.93;;
20142;SDS011;10509;46.476;7.134;2023-05-29T05:21:42;5.93;;;5.40;;
20142;SDS011;10509;46.476;7.134;2023-05-29T05:24:08;5.53;;;5.13;;
20142;SDS011;10509;46.476;7.134;2023-05-29T05:26:34;5.83;;;5.33;;
20142;SDS011;10509;46.476;7.134;2023-05-29T05:29:00;7.53;;;5.17;;
20142;SDS011;10509;46.476;7.134;2023-05-29T05:31:26;5.40;;;4.90;;
20142;SDS011;10509;46.476;7.134;2023-05-29T05:33:52;6.77;;;5.00;;
20142;SDS011;10509;46.476;7.134;2023-05-29T05:36:18;5.57;;;5.07;;
20142;SDS011;10509;46.476;7.134;2023-05-29T05:38:44;5.70;;;5.10;;
20142;SDS011;10509;46.476;7.134;2023-05-29T05:41:10;6.50;;;5.27;;
20142;SDS011;10509;46.476;7.134;2023-05-29T05:43:37;5.50;;;5.10;;
20142;SDS011;10509;46.476;7.134;2023-05-29T05:46:03;6.07;;;5.57;;
20142;SDS011;10509;46.476;7.134;2023-05-29T05:48:29;5.70;;;5.20;;
20142;SDS011;10509;46.476;7.134;2023-05-29T05:50:55;7.37;;;5.97;;
20142;SDS011;10509;46.476;7.134;2023-05-29T05:53:21;5.93;;;5.33;;
20142;SDS011;10509;46.476;7.134;2023-05-29T05:55:47;5.20;;;4.70;;
20142;SDS011;10509;46.476;7.134;2023-05-29T05:58:13;5.67;;;5.13;;
20142;SDS011;10509;46.476;7.134;2023-05-29T06:00:39;5.93;;;4.90;;
20142;SDS011;10509;46.476;7.134;2023-05-29T06:03:07;5.67;;;5.27;;
20142;SDS011;10509;46.476;7.134;2023-05-29T06:05:33;5.40;;;4.90;;
20142;SDS011;10509;46.476;7.134;2023-05-29T06:08:01;6.07;;;5.57;;
20142;SDS011;10509;46.476;7.134;2023-05-29T06:10:27;5.47;;;5.07;;
20142;SDS011;10509;46.476;7.134;2023-05-29T06:12:53;6.03;;;5.53;;
20142;SDS011;10509;46.476;7.134;2023-05-29T06:15:19;5.50;;;5.10;;
20142;SDS011;10509;46.476;7.134;2023-05-29T06:17:45;5.97;;;5.57;;
20142;SDS011;10509;46.476;7.134;2023-05-29T06:20:11;5.67;;;5.17;;
20142;SDS011;10509;46.476;7.134;2023-05-29T06:22:38;5.97;;;5.00;;
20142;SDS011;10509;46.476;7.134;2023-05-29T06:25:05;5.20;;;4.70;;
20142;SDS011;10509;46.476;7.134;2023-05-29T06:27:31;5.67;;;5.27;;
20142;SDS011;10509;46.476;7.134;2023-05-29T06:29:57;6.63;;;5.57;;
20142;SDS011;10509;46.476;7.134;2023-05-29T06:32:23;5.40;;;5.00;;
20142;SDS011;10509;46.476;7.134;2023-05-29T06:34:49;5.20;;;4.80;;
20142;SDS011;10509;46.476;7.134;2023-05-29T06:37:15;5.03;;;4.63;;
20142;SDS011;10509;46.476;7.134;2023-05-29T06:39:45;4.90;;;4.60;;
20142;SDS011;10509;46.476;7.134;2023-05-29T06:42:11;5.40;;;4.93;;
20142;SDS011;10509;46.476;7.134;2023-05-29T06:44:37;6.20;;;4.67;;
20142;SDS011;10509;46.476;7.134;2023-05-29T06:47:05;5.40;;;4.90;;
20142;SDS011;10509;46.476;7.134;2023-05-29T06:49:31;5.67;;;5.27;;
20142;SDS011;10509;46.476;7.134;2023-05-29T06:51:57;5.63;;;5.10;;
20142;SDS011;10509;46.476;7.134;2023-05-29T06:54:23;4.97;;;4.57;;
20142;SDS011;10509;46.476;7.134;2023-05-29T06:56:49;5.60;;;5.17;;
20142;SDS011;10509;46.476;7.134;2023-05-29T06:59:15;5.13;;;4.70;;
20142;SDS011;10509;46.476;7.134;2023-05-29T07:01:41;8.53;;;5.37;;
20142;SDS011;10509;46.476;7.134;2023-05-29T07:04:07;6.87;;;5.37;;
20142;SDS011;10509;46.476;7.134;2023-05-29T07:06:33;5.50;;;4.90;;
20142;SDS011;10509;46.476;7.134;2023-05-29T07:09:00;5.63;;;4.80;;
20142;SDS011;10509;46.476;7.134;2023-05-29T07:11:26;5.20;;;4.77;;
20142;SDS011;10509;46.476;7.134;2023-05-29T07:13:55;4.77;;;4.37;;
20142;SDS011;10509;46.476;7.134;2023-05-29T07:16:21;5.07;;;4.73;;
20142;SDS011;10509;46.476;7.134;2023-05-29T07:18:47;6.50;;;4.60;;
20142;SDS011;10509;46.476;7.134;2023-05-29T07:21:13;5.43;;;4.57;;
20142;SDS011;10509;46.476;7.134;2023-05-29T07:23:39;6.63;;;4.43;;
20142;SDS011;10509;46.476;7.134;2023-05-29T07:26:05;5.22;;;4.75;;
20142;SDS011;10509;46.476;7.134;2023-05-29T07:28:32;5.10;;;4.60;;
20142;SDS011;10509;46.476;7.134;2023-05-29T07:30:58;5.20;;;4.70;;
20142;SDS011;10509;46.476;7.134;2023-05-29T07:33:24;5.20;;;4.68;;
20142;SDS011;10509;46.476;7.134;2023-05-29T07:35:50;4.95;;;4.20;;
20142;SDS011;10509;46.476;7.134;2023-05-29T07:38:16;6.78;;;4.53;;
20142;SDS011;10509;46.476;7.134;2023-05-29T07:40:42;4.63;;;4.25;;
20142;SDS011;10509;46.476;7.134;2023-05-29T07:43:08;6.75;;;4.05;;
20142;SDS011;10509;46.476;7.134;2023-05-29T07:45:34;4.90;;;4.50;;
20142;SDS011;10509;46.476;7.134;2023-05-29T07:48:00;5.45;;;4.82;;
20142;SDS011;10509;46.476;7.134;2023-05-29T07:50:26;4.75;;;4.32;;
20142;SDS011;10509;46.476;7.134;2023-05-29T07:52:52;4.32;;;4.03;;
20142;SDS011;10509;46.476;7.134;2023-05-29T07:55:20;4.40;;;4.00;;
20142;SDS011;10509;46.476;7.134;2023-05-29T07:57:46;5.20;;;4.72;;
20142;SDS011;10509;46.476;7.134;2023-05-29T08:00:13;4.97;;;4.03;;
20142;SDS011;10509;46.476;7.134;2023-05-29T08:02:40;4.65;;;4.07;;
20142;SDS011;10509;46.476;7.134;2023-05-29T08:05:07;7.57;;;4.20;;
20142;SDS011;10509;46.476;7.134;2023-05-29T08:07:34;4.50;;;4.10;;
20142;SDS011;10509;46.476;7.134;2023-05-29T08:10:00;4.50;;;4.20;;
20142;SDS011;10509;46.476;7.134;2023-05-29T08:12:26;4.13;;;3.83;;
20142;SDS011;10509;46.476;7.134;2023-05-29T08:14:52;5.28;;;4.18;;
20142;SDS011;10509;46.476;7.134;2023-05-29T08:17:18;4.45;;;4.00;;
20142;SDS011;10509;46.476;7.134;2023-05-29T08:19:44;4.82;;;3.72;;
20142;SDS011;10509;46.476;7.134;2023-05-29T08:22:12;3.85;;;3.50;;
20142;SDS011;10509;46.476;7.134;2023-05-29T08:24:38;6.00;;;3.85;;
20142;SDS011;10509;46.476;7.134;2023-05-29T08:27:04;5.60;;;3.97;;
20142;SDS011;10509;46.476;7.134;2023-05-29T08:29:30;7.03;;;4.72;;
20142;SDS011;10509;46.476;7.134;2023-05-29T08:31:56;4.57;;;3.97;;
20142;SDS011;10509;46.476;7.134;2023-05-29T08:34:22;4.05;;;3.75;;
20142;SDS011;10509;46.476;7.134;2023-05-29T08:36:48;3.90;;;3.60;;
20142;SDS011;10509;46.476;7.134;2023-05-29T08:39:16;4.15;;;3.63;;
20142;SDS011;10509;46.476;7.134;2023-05-29T08:41:55;4.88;;;4.47;;
20142;SDS011;10509;46.476;7.134;2023-05-29T08:44:23;4.68;;;4.05;;
20142;SDS011;10509;46.476;7.134;2023-05-29T08:46:51;5.50;;;4.00;;
20142;SDS011;10509;46.476;7.134;2023-05-29T08:49:20;7.35;;;4.10;;
20142;SDS011;10509;46.476;7.134;2023-05-29T08:51:53;4.20;;;3.90;;
20142;SDS011;10509;46.476;7.134;2023-05-29T08:54:22;4.50;;;4.10;;
20142;SDS011;10509;46.476;7.134;2023-05-29T08:56:48;4.38;;;3.45;;
20142;SDS011;10509;46.476;7.134;2023-05-29T08:59:14;4.28;;;3.90;;
20142;SDS011;10509;46.476;7.134;2023-05-29T09:01:42;4.85;;;3.83;;
20142;SDS011;10509;46.476;7.134;2023-05-29T09:04:08;4.15;;;3.78;;
20142;SDS011;10509;46.476;7.134;2023-05-29T09:06:35;5.43;;;3.80;;
20142;SDS011;10509;46.476;7.134;2023-05-29T09:09:01;3.92;;;3.63;;
20142;SDS011;10509;46.476;7.134;2023-05-29T09:11:30;4.13;;;3.80;;
20142;SDS011;10509;46.476;7.134;2023-05-29T09:13:57;4.15;;;3.83;;
20142;SDS011;10509;46.476;7.134;2023-05-29T09:16:24;4.03;;;3.72;;
20142;SDS011;10509;46.476;7.134;2023-05-29T09:18:50;6.38;;;4.10;;
20142;SDS011;10509;46.476;7.134;2023-05-29T09:21:26;4.30;;;3.90;;
20142;SDS011;10509;46.476;7.134;2023-05-29T09:23:53;4.20;;;3.75;;
20142;SDS011;10509;46.476;7.134;2023-05-29T09:26:21;4.78;;;3.72;;
20142;SDS011;10509;46.476;7.134;2023-05-29T09:28:50;4.20;;;3.90;;
20142;SDS011;10509;46.476;7.134;2023-05-29T09:31:16;4.22;;;3.83;;
20142;SDS011;10509;46.476;7.134;2023-05-29T09:33:48;3.95;;;3.55;;
20142;SDS011;10509;46.476;7.134;2023-05-29T09:36:23;4.38;;;4.07;;
20142;SDS011;10509;46.476;7.134;2023-05-29T09:38:50;6.50;;;4.25;;
20142;SDS011;10509;46.476;7.134;2023-05-29T09:41:25;4.15;;;3.72;;
20142;SDS011;10509;46.476;7.134;2023-05-29T09:43:51;4.35;;;3.90;;
20142;SDS011;10509;46.476;7.134;2023-05-29T09:46:21;4.35;;;3.95;;
20142;SDS011;10509;46.476;7.134;2023-05-29T09:48:47;3.80;;;3.47;;
20142;SDS011;10509;46.476;7.134;2023-05-29T09:51:23;4.22;;;3.85;;
20142;SDS011;10509;46.476;7.134;2023-05-29T09:53:49;4.40;;;4.05;;
20142;SDS011;10509;46.476;7.134;2023-05-29T09:56:16;5.63;;;3.60;;
20142;SDS011;10509;46.476;7.134;2023-05-29T09:58:44;4.50;;;3.95;;
20142;SDS011;10509;46.476;7.134;2023-05-29T10:01:14;4.40;;;4.05;;
20142;SDS011;10509;46.476;7.134;2023-05-29T10:03:41;4.28;;;3.92;;
20142;SDS011;10509;46.476;7.134;2023-05-29T10:06:07;8.43;;;4.63;;
20142;SDS011;10509;46.476;7.134;2023-05-29T10:08:37;6.68;;;3.95;;
20142;SDS011;10509;46.476;7.134;2023-05-29T10:11:03;4.30;;;3.92;;
20142;SDS011;10509;46.476;7.134;2023-05-29T10:13:34;5.97;;;4.00;;
20142;SDS011;10509;46.476;7.134;2023-05-29T10:16:01;4.30;;;3.90;;
20142;SDS011;10509;46.476;7.134;2023-05-29T10:18:32;4.70;;;4.30;;
20142;SDS011;10509;46.476;7.134;2023-05-29T10:20:59;6.40;;;4.18;;
20142;SDS011;10509;46.476;7.134;2023-05-29T10:23:26;4.72;;;4.03;;
20142;SDS011;10509;46.476;7.134;2023-05-29T10:25:55;4.53;;;4.22;;
20142;SDS011;10509;46.476;7.134;2023-05-29T10:28:24;4.50;;;4.10;;
20142;SDS011;10509;46.476;7.134;2023-05-29T10:30:54;4.38;;;3.97;;
20142;SDS011;10509;46.476;7.134;2023-05-29T10:38:25;5.40;;;4.35;;
20142;SDS011;10509;46.476;7.134;2023-05-29T10:40:51;4.70;;;3.97;;
20142;SDS011;10509;46.476;7.134;2023-05-29T10:43:53;4.90;;;4.50;;
20142;SDS011;10509;46.476;7.134;2023-05-29T10:46:10;5.03;;;4.53;;
20142;SDS011;10509;46.476;7.134;2023-05-29T10:48:36;4.82;;;4.43;;
20142;SDS011;10509;46.476;7.134;2023-05-29T10:51:04;4.75;;;4.18;;
20142;SDS011;10509;46.476;7.134;2023-05-29T10:53:32;5.88;;;4.35;;
20142;SDS011;10509;46.476;7.134;2023-05-29T10:55:58;4.72;;;4.10;;
20142;SDS011;10509;46.476;7.134;2023-05-29T10:58:26;4.57;;;4.18;;
20142;SDS011;10509;46.476;7.134;2023-05-29T11:00:53;5.85;;;4.70;;
20142;SDS011;10509;46.476;7.134;2023-05-29T11:03:25;9.18;;;4.32;;
20142;SDS011;10509;46.476;7.134;2023-05-29T11:05:58;4.75;;;4.32;;
20142;SDS011;10509;46.476;7.134;2023-05-29T11:08:28;6.55;;;4.82;;
20142;SDS011;10509;46.476;7.134;2023-05-29T11:10:56;4.50;;;4.18;;
20142;SDS011;10509;46.476;7.134;2023-05-29T11:13:23;5.63;;;4.50;;
20142;SDS011;10509;46.476;7.134;2023-05-29T11:18:38;5.10;;;4.47;;
20142;SDS011;10509;46.476;7.134;2023-05-29T11:21:05;4.70;;;4.30;;
20142;SDS011;10509;46.476;7.134;2023-05-29T11:23:37;5.93;;;4.65;;
20142;SDS011;10509;46.476;7.134;2023-05-29T11:26:06;4.30;;;3.90;;
20142;SDS011;10509;46.476;7.134;2023-05-29T11:28:32;5.57;;;4.30;;
20142;SDS011;10509;46.476;7.134;2023-05-29T11:30:59;4.35;;;3.95;;
20142;SDS011;10509;46.476;7.134;2023-05-29T11:33:29;6.63;;;4.80;;
20142;SDS011;10509;46.476;7.134;2023-05-29T11:35:58;7.55;;;4.88;;
20142;SDS011;10509;46.476;7.134;2023-05-29T11:38:24;4.68;;;4.28;;
20142;SDS011;10509;46.476;7.134;2023-05-29T11:40:51;5.25;;;4.75;;
20142;SDS011;10509;46.476;7.134;2023-05-29T11:43:17;5.43;;;4.65;;
20142;SDS011;10509;46.476;7.134;2023-05-29T11:45:43;4.80;;;4.28;;
20142;SDS011;10509;46.476;7.134;2023-05-29T11:48:10;6.63;;;4.50;;
20142;SDS011;10509;46.476;7.134;2023-05-29T11:50:36;5.60;;;4.60;;
20142;SDS011;10509;46.476;7.134;2023-05-29T11:53:02;4.80;;;4.40;;
20142;SDS011;10509;46.476;7.134;2023-05-29T11:55:28;5.07;;;4.30;;
20142;SDS011;10509;46.476;7.134;2023-05-29T11:58:01;5.57;;;4.45;;
20142;SDS011;10509;46.476;7.134;2023-05-29T12:00:37;5.45;;;4.45;;
20142;SDS011;10509;46.476;7.134;2023-05-29T12:03:04;5.32;;;4.82;;
20142;SDS011;10509;46.476;7.134;2023-05-29T12:05:45;6.32;;;4.40;;
20142;SDS011;10509;46.476;7.134;2023-05-29T12:08:11;5.43;;;4.13;;
20142;SDS011;10509;46.476;7.134;2023-05-29T12:10:37;4.78;;;4.38;;
20142;SDS011;10509;46.476;7.134;2023-05-29T12:13:03;4.72;;;4.32;;
20142;SDS011;10509;46.476;7.134;2023-05-29T12:15:29;5.18;;;4.18;;
20142;SDS011;10509;46.476;7.134;2023-05-29T12:17:55;14.18;;;4.53;;
20142;SDS011;10509;46.476;7.134;2023-05-29T12:20:23;5.32;;;4.82;;
20142;SDS011;10509;46.476;7.134;2023-05-29T12:22:54;5.38;;;4.28;;
20142;SDS011;10509;46.476;7.134;2023-05-29T12:25:25;5.38;;;4.80;;
20142;SDS011;10509;46.476;7.134;2023-05-29T12:27:51;7.38;;;4.40;;
20142;SDS011;10509;46.476;7.134;2023-05-29T12:32:43;5.93;;;4.40;;
20142;SDS011;10509;46.476;7.134;2023-05-29T12:37:41;5.18;;;4.68;;
20142;SDS011;10509;46.476;7.134;2023-05-29T12:40:11;4.70;;;4.30;;
20142;SDS011;10509;46.476;7.134;2023-05-29T12:42:38;5.10;;;4.70;;
20142;SDS011;10509;46.476;7.134;2023-05-29T12:45:04;5.28;;;4.50;;
20142;SDS011;10509;46.476;7.134;2023-05-29T12:47:31;4.97;;;4.47;;
20142;SDS011;10509;46.476;7.134;2023-05-29T12:49:57;5.05;;;4.65;;
20142;SDS011;10509;46.476;7.134;2023-05-29T12:52:23;5.07;;;4.68;;
20142;SDS011;10509;46.476;7.134;2023-05-29T12:54:50;5.10;;;4.60;;
20142;SDS011;10509;46.476;7.134;2023-05-29T12:57:16;5.28;;;4.57;;
20142;SDS011;10509;46.476;7.134;2023-05-29T12:59:42;4.47;;;4.10;;
20142;SDS011;10509;46.476;7.134;2023-05-29T13:02:08;4.93;;;4.35;;
20142;SDS011;10509;46.476;7.134;2023-05-29T13:04:34;3.60;;;3.30;;
20142;SDS011;10509;46.476;7.134;2023-05-29T13:07:00;7.20;;;5.03;;
20142;SDS011;10509;46.476;7.134;2023-05-29T13:09:26;3.53;;;3.22;;
20142;SDS011;10509;46.476;7.134;2023-05-29T13:11:52;4.68;;;4.22;;
20142;SDS011;10509;46.476;7.134;2023-05-29T13:14:18;5.13;;;4.50;;
20142;SDS011;10509;46.476;7.134;2023-05-29T13:16:44;4.57;;;4.18;;
20142;SDS011;10509;46.476;7.134;2023-05-29T13:19:10;4.05;;;3.30;;
20142;SDS011;10509;46.476;7.134;2023-05-29T13:21:36;4.65;;;3.92;;
20142;SDS011;10509;46.476;7.134;2023-05-29T13:24:02;3.95;;;3.38;;
20142;SDS011;10509;46.476;7.134;2023-05-29T13:26:29;3.85;;;3.55;;
20142;SDS011;10509;46.476;7.134;2023-05-29T13:28:55;5.72;;;3.95;;
20142;SDS011;10509;46.476;7.134;2023-05-29T13:31:21;5.97;;;3.83;;
20142;SDS011;10509;46.476;7.134;2023-05-29T13:33:47;3.88;;;3.55;;
20142;SDS011;10509;46.476;7.134;2023-05-29T13:36:13;3.50;;;3.20;;
20142;SDS011;10509;46.476;7.134;2023-05-29T13:38:39;4.30;;;2.92;;
20142;SDS011;10509;46.476;7.134;2023-05-29T13:41:05;3.97;;;3.50;;
20142;SDS011;10509;46.476;7.134;2023-05-29T13:43:31;3.88;;;3.45;;
20142;SDS011;10509;46.476;7.134;2023-05-29T13:45:58;3.17;;;2.50;;
20142;SDS011;10509;46.476;7.134;2023-05-29T13:48:24;5.40;;;4.15;;
20142;SDS011;10509;46.476;7.134;2023-05-29T13:50:50;3.33;;;3.03;;
20142;SDS011;10509;46.476;7.134;2023-05-29T13:53:16;6.43;;;3.95;;
20142;SDS011;10509;46.476;7.134;2023-05-29T13:55:42;4.22;;;3.47;;
20142;SDS011;10509;46.476;7.134;2023-05-29T13:58:08;2.78;;;2.58;;
20142;SDS011;10509;46.476;7.134;2023-05-29T14:00:34;4.63;;;3.20;;
20142;SDS011;10509;46.476;7.134;2023-05-29T14:03:00;3.92;;;2.88;;
20142;SDS011;10509;46.476;7.134;2023-05-29T14:05:26;4.28;;;3.47;;
20142;SDS011;10509;46.476;7.134;2023-05-29T14:07:52;3.95;;;3.65;;
20142;SDS011;10509;46.476;7.134;2023-05-29T14:10:18;3.70;;;3.40;;
20142;SDS011;10509;46.476;7.134;2023-05-29T14:12:44;4.20;;;3.80;;
20142;SDS011;10509;46.476;7.134;2023-05-29T14:15:10;4.57;;;3.55;;
20142;SDS011;10509;46.476;7.134;2023-05-29T14:17:36;4.40;;;4.00;;
20142;SDS011;10509;46.476;7.134;2023-05-29T14:20:02;4.45;;;4.05;;
20142;SDS011;10509;46.476;7.134;2023-05-29T14:22:33;4.78;;;3.60;;
20142;SDS011;10509;46.476;7.134;2023-05-29T14:24:59;3.30;;;3.00;;
20142;SDS011;10509;46.476;7.134;2023-05-29T14:27:25;5.00;;;4.05;;
20142;SDS011;10509;46.476;7.134;2023-05-29T14:29:51;4.07;;;3.50;;
20142;SDS011;10509;46.476;7.134;2023-05-29T14:32:17;6.80;;;4.22;;
20142;SDS011;10509;46.476;7.134;2023-05-29T14:34:43;4.35;;;3.75;;
20142;SDS011;10509;46.476;7.134;2023-05-29T14:37:09;4.88;;;4.45;;
20142;SDS011;10509;46.476;7.134;2023-05-29T14:39:35;6.00;;;5.40;;
20142;SDS011;10509;46.476;7.134;2023-05-29T14:42:01;4.85;;;4.45;;
20142;SDS011;10509;46.476;7.134;2023-05-29T14:44:28;4.53;;;4.15;;
20142;SDS011;10509;46.476;7.134;2023-05-29T14:46:54;5.97;;;4.88;;
20142;SDS011;10509;46.476;7.134;2023-05-29T14:49:20;6.68;;;4.70;;
20142;SDS011;10509;46.476;7.134;2023-05-29T14:51:46;6.45;;;4.32;;
20142;SDS011;10509;46.476;7.134;2023-05-29T14:54:12;6.93;;;4.38;;
20142;SDS011;10509;46.476;7.134;2023-05-29T14:56:38;4.78;;;4.05;;
20142;SDS011;10509;46.476;7.134;2023-05-29T14:59:04;6.22;;;4.30;;
20142;SDS011;10509;46.476;7.134;2023-05-29T15:01:30;4.03;;;3.70;;
20142;SDS011;10509;46.476;7.134;2023-05-29T15:03:56;5.15;;;4.70;;